sensor_id;sensor_type;location;lat;lon;timestamp;P1;durP1;ratioP1;P2;durP2;ratioP2
71502;SDS011;59322;51.382;7.372;2024-02-16T00:01:45;40.17;;;37.63;;
71502;SDS011;59322;51.382;7.372;2024-02-16T00:04:11;37.42;;;35.03;;
71502;SDS011;59322;51.382;7.372;2024-02-16T00:06:36;37.50;;;35.13;;
71502;SDS011;59322;51.382;7.372;2024-02-16T00:09:02;35.58;;;33.25;;
71502;SDS011;59322;51.382;7.372;2024-02-16T00:11:28;35.50;;;33.10;;
71502;SDS011;59322;51.382;7.372;2024-02-16T00:13:54;38.38;;;35.95;;
71502;SDS011;59322;51.382;7.372;2024-02-16T00:16:20;38.08;;;35.85;;
71502;SDS011;59322;51.382;7.372;2024-02-16T00:18:46;36.28;;;34.17;;
71502;SDS011;59322;51.382;7.372;2024-02-16T00:21:12;38.65;;;36.35;;
71502;SDS011;59322;51.382;7.372;2024-02-16T00:23:38;38.33;;;35.95;;
71502;SDS011;59322;51.382;7.372;2024-02-16T00:26:04;36.70;;;34.47;;
71502;SDS011;59322;51.382;7.372;2024-02-16T00:28:30;36.88;;;34.65;;
71502;SDS011;59322;51.382;7.372;2024-02-16T00:30:55;38.45;;;35.92;;
71502;SDS011;59322;51.382;7.372;2024-02-16T00:33:21;37.55;;;35.22;;
71502;SDS011;59322;51.382;7.372;2024-02-16T00:35:47;38.00;;;35.63;;
71502;SDS011;59322;51.382;7.372;2024-02-16T00:38:13;38.30;;;36.00;;
71502;SDS011;59322;51.382;7.372;2024-02-16T00:40:39;37.28;;;34.95;;
71502;SDS011;59322;51.382;7.372;2024-02-16T00:43:05;39.25;;;36.85;;
71502;SDS011;59322;51.382;7.372;2024-02-16T00:45:31;38.47;;;36.15;;
71502;SDS011;59322;51.382;7.372;2024-02-16T00:47:57;37.33;;;34.92;;
71502;SDS011;59322;51.382;7.372;2024-02-16T00:50:23;39.03;;;36.60;;
71502;SDS011;59322;51.382;7.372;2024-02-16T00:52:48;38.38;;;36.08;;
71502;SDS011;59322;51.382;7.372;2024-02-16T00:55:14;38.50;;;36.20;;
71502;SDS011;59322;51.382;7.372;2024-02-16T00:57:40;36.72;;;34.42;;
71502;SDS011;59322;51.382;7.372;2024-02-16T01:00:06;40.00;;;37.50;;
71502;SDS011;59322;51.382;7.372;2024-02-16T01:02:32;36.28;;;34.08;;
71502;SDS011;59322;51.382;7.372;2024-02-16T01:04:58;38.92;;;36.45;;
71502;SDS011;59322;51.382;7.372;2024-02-16T01:07:24;40.15;;;37.75;;
71502;SDS011;59322;51.382;7.372;2024-02-16T01:09:50;39.97;;;37.47;;
71502;SDS011;59322;51.382;7.372;2024-02-16T01:12:16;40.33;;;37.92;;
71502;SDS011;59322;51.382;7.372;2024-02-16T01:14:42;37.35;;;35.10;;
71502;SDS011;59322;51.382;7.372;2024-02-16T01:17:08;42.03;;;39.42;;
71502;SDS011;59322;51.382;7.372;2024-02-16T01:19:34;38.78;;;36.17;;
71502;SDS011;59322;51.382;7.372;2024-02-16T01:21:59;41.65;;;39.00;;
71502;SDS011;59322;51.382;7.372;2024-02-16T01:24:25;41.45;;;38.90;;
71502;SDS011;59322;51.382;7.372;2024-02-16T01:26:51;43.40;;;40.83;;
71502;SDS011;59322;51.382;7.372;2024-02-16T01:29:17;39.22;;;36.85;;
71502;SDS011;59322;51.382;7.372;2024-02-16T01:31:43;40.50;;;37.97;;
71502;SDS011;59322;51.382;7.372;2024-02-16T01:34:09;38.72;;;36.20;;
71502;SDS011;59322;51.382;7.372;2024-02-16T01:36:35;38.03;;;35.50;;
71502;SDS011;59322;51.382;7.372;2024-02-16T01:39:01;42.95;;;40.13;;
71502;SDS011;59322;51.382;7.372;2024-02-16T01:41:27;45.10;;;42.40;;
71502;SDS011;59322;51.382;7.372;2024-02-16T01:43:53;44.92;;;42.22;;
71502;SDS011;59322;51.382;7.372;2024-02-16T01:46:19;42.22;;;39.53;;
71502;SDS011;59322;51.382;7.372;2024-02-16T01:48:45;40.78;;;38.35;;
71502;SDS011;59322;51.382;7.372;2024-02-16T01:51:10;40.70;;;38.20;;
71502;SDS011;59322;51.382;7.372;2024-02-16T01:53:37;42.70;;;40.13;;
71502;SDS011;59322;51.382;7.372;2024-02-16T01:56:03;40.28;;;37.88;;
71502;SDS011;59322;51.382;7.372;2024-02-16T01:58:29;37.67;;;35.15;;
71502;SDS011;59322;51.382;7.372;2024-02-16T02:00:55;38.10;;;35.67;;
71502;SDS011;59322;51.382;7.372;2024-02-16T02:03:21;37.92;;;35.63;;
71502;SDS011;59322;51.382;7.372;2024-02-16T02:05:47;36.70;;;34.58;;
71502;SDS011;59322;51.382;7.372;2024-02-16T02:08:13;37.15;;;34.85;;
71502;SDS011;59322;51.382;7.372;2024-02-16T02:10:39;37.22;;;34.95;;
71502;SDS011;59322;51.382;7.372;2024-02-16T02:13:05;37.90;;;35.28;;
71502;SDS011;59322;51.382;7.372;2024-02-16T02:15:31;39.92;;;37.33;;
71502;SDS011;59322;51.382;7.372;2024-02-16T02:17:57;38.70;;;36.30;;
71502;SDS011;59322;51.382;7.372;2024-02-16T02:20:23;37.20;;;34.90;;
71502;SDS011;59322;51.382;7.372;2024-02-16T02:22:49;35.10;;;32.92;;
71502;SDS011;59322;51.382;7.372;2024-02-16T02:25:15;37.33;;;35.10;;
71502;SDS011;59322;51.382;7.372;2024-02-16T02:27:41;34.58;;;32.47;;
71502;SDS011;59322;51.382;7.372;2024-02-16T02:30:07;34.30;;;32.28;;
71502;SDS011;59322;51.382;7.372;2024-02-16T02:32:33;34.83;;;32.83;;
71502;SDS011;59322;51.382;7.372;2024-02-16T02:34:59;32.08;;;30.08;;
71502;SDS011;59322;51.382;7.372;2024-02-16T02:37:24;32.38;;;30.48;;
71502;SDS011;59322;51.382;7.372;2024-02-16T02:39:50;31.77;;;29.98;;
71502;SDS011;59322;51.382;7.372;2024-02-16T02:42:16;33.92;;;31.77;;
71502;SDS011;59322;51.382;7.372;2024-02-16T02:44:42;37.67;;;35.47;;
71502;SDS011;59322;51.382;7.372;2024-02-16T02:47:08;37.50;;;35.20;;
71502;SDS011;59322;51.382;7.372;2024-02-16T02:49:34;33.40;;;31.13;;
71502;SDS011;59322;51.382;7.372;2024-02-16T02:52:00;36.17;;;33.67;;
71502;SDS011;59322;51.382;7.372;2024-02-16T02:54:26;36.33;;;34.08;;
71502;SDS011;59322;51.382;7.372;2024-02-16T02:56:52;38.03;;;35.53;;
71502;SDS011;59322;51.382;7.372;2024-02-16T02:59:18;37.45;;;35.22;;
71502;SDS011;59322;51.382;7.372;2024-02-16T03:01:43;36.72;;;34.53;;
71502;SDS011;59322;51.382;7.372;2024-02-16T03:04:09;35.20;;;32.95;;
71502;SDS011;59322;51.382;7.372;2024-02-16T03:06:35;33.08;;;30.95;;
71502;SDS011;59322;51.382;7.372;2024-02-16T03:09:01;34.75;;;32.75;;
71502;SDS011;59322;51.382;7.372;2024-02-16T03:11:27;37.22;;;34.95;;
71502;SDS011;59322;51.382;7.372;2024-02-16T03:13:53;43.55;;;40.90;;
71502;SDS011;59322;51.382;7.372;2024-02-16T03:16:19;39.47;;;37.20;;
71502;SDS011;59322;51.382;7.372;2024-02-16T03:18:45;38.72;;;36.33;;
71502;SDS011;59322;51.382;7.372;2024-02-16T03:21:14;40.03;;;37.55;;
71502;SDS011;59322;51.382;7.372;2024-02-16T03:23:40;36.20;;;33.97;;
71502;SDS011;59322;51.382;7.372;2024-02-16T03:26:12;38.00;;;35.70;;
71502;SDS011;59322;51.382;7.372;2024-02-16T03:28:38;41.45;;;38.97;;
71502;SDS011;59322;51.382;7.372;2024-02-16T03:31:04;43.53;;;40.97;;
71502;SDS011;59322;51.382;7.372;2024-02-16T03:33:30;42.53;;;40.08;;
71502;SDS011;59322;51.382;7.372;2024-02-16T03:35:56;43.85;;;41.35;;
71502;SDS011;59322;51.382;7.372;2024-02-16T03:38:22;47.05;;;44.15;;
71502;SDS011;59322;51.382;7.372;2024-02-16T03:40:48;45.10;;;42.10;;
71502;SDS011;59322;51.382;7.372;2024-02-16T03:43:14;44.28;;;41.58;;
71502;SDS011;59322;51.382;7.372;2024-02-16T03:45:39;47.40;;;44.58;;
71502;SDS011;59322;51.382;7.372;2024-02-16T03:48:05;45.15;;;42.55;;
71502;SDS011;59322;51.382;7.372;2024-02-16T03:50:31;43.75;;;41.13;;
71502;SDS011;59322;51.382;7.372;2024-02-16T03:52:57;46.17;;;43.47;;
71502;SDS011;59322;51.382;7.372;2024-02-16T03:55:23;46.58;;;43.75;;
71502;SDS011;59322;51.382;7.372;2024-02-16T03:57:49;52.90;;;49.83;;
71502;SDS011;59322;51.382;7.372;2024-02-16T04:00:15;51.97;;;48.90;;
71502;SDS011;59322;51.382;7.372;2024-02-16T04:05:26;58.10;;;54.60;;
71502;SDS011;59322;51.382;7.372;2024-02-16T04:07:51;52.88;;;49.67;;
71502;SDS011;59322;51.382;7.372;2024-02-16T04:10:17;48.13;;;45.17;;
71502;SDS011;59322;51.382;7.372;2024-02-16T04:12:43;54.90;;;51.53;;
71502;SDS011;59322;51.382;7.372;2024-02-16T04:15:09;57.65;;;53.80;;
71502;SDS011;59322;51.382;7.372;2024-02-16T04:17:35;53.80;;;50.70;;
71502;SDS011;59322;51.382;7.372;2024-02-16T04:20:01;49.45;;;46.42;;
71502;SDS011;59322;51.382;7.372;2024-02-16T04:22:27;46.90;;;44.05;;
71502;SDS011;59322;51.382;7.372;2024-02-16T04:24:53;43.40;;;40.58;;
71502;SDS011;59322;51.382;7.372;2024-02-16T04:27:19;48.35;;;45.58;;
71502;SDS011;59322;51.382;7.372;2024-02-16T04:29:45;55.40;;;52.20;;
71502;SDS011;59322;51.382;7.372;2024-02-16T04:32:10;58.70;;;55.30;;
71502;SDS011;59322;51.382;7.372;2024-02-16T04:34:36;58.75;;;55.35;;
71502;SDS011;59322;51.382;7.372;2024-02-16T04:37:02;55.72;;;52.50;;
71502;SDS011;59322;51.382;7.372;2024-02-16T04:39:28;53.00;;;49.88;;
71502;SDS011;59322;51.382;7.372;2024-02-16T04:41:54;51.55;;;48.38;;
71502;SDS011;59322;51.382;7.372;2024-02-16T04:44:20;52.60;;;49.47;;
71502;SDS011;59322;51.382;7.372;2024-02-16T04:46:46;53.70;;;50.25;;
71502;SDS011;59322;51.382;7.372;2024-02-16T04:49:12;53.15;;;49.97;;
71502;SDS011;59322;51.382;7.372;2024-02-16T04:51:38;52.92;;;49.80;;
71502;SDS011;59322;51.382;7.372;2024-02-16T04:54:03;59.78;;;56.30;;
71502;SDS011;59322;51.382;7.372;2024-02-16T04:56:29;53.28;;;49.95;;
71502;SDS011;59322;51.382;7.372;2024-02-16T04:58:55;55.10;;;51.90;;
71502;SDS011;59322;51.382;7.372;2024-02-16T05:01:21;49.95;;;47.08;;
71502;SDS011;59322;51.382;7.372;2024-02-16T05:03:47;56.20;;;52.90;;
71502;SDS011;59322;51.382;7.372;2024-02-16T05:06:13;54.30;;;50.90;;
71502;SDS011;59322;51.382;7.372;2024-02-16T05:08:39;56.38;;;52.78;;
71502;SDS011;59322;51.382;7.372;2024-02-16T05:11:05;55.63;;;52.42;;
71502;SDS011;59322;51.382;7.372;2024-02-16T05:13:31;58.50;;;55.10;;
71502;SDS011;59322;51.382;7.372;2024-02-16T05:15:56;60.10;;;56.50;;
71502;SDS011;59322;51.382;7.372;2024-02-16T05:18:22;58.67;;;55.17;;
71502;SDS011;59322;51.382;7.372;2024-02-16T05:20:48;59.33;;;55.83;;
71502;SDS011;59322;51.382;7.372;2024-02-16T05:23:14;63.60;;;59.75;;
71502;SDS011;59322;51.382;7.372;2024-02-16T05:25:40;65.20;;;61.47;;
71502;SDS011;59322;51.382;7.372;2024-02-16T05:28:06;61.95;;;58.42;;
71502;SDS011;59322;51.382;7.372;2024-02-16T05:30:32;61.72;;;58.20;;
71502;SDS011;59322;51.382;7.372;2024-02-16T05:32:58;58.22;;;54.67;;
71502;SDS011;59322;51.382;7.372;2024-02-16T05:35:24;61.42;;;57.63;;
71502;SDS011;59322;51.382;7.372;2024-02-16T05:37:50;61.58;;;58.00;;
71502;SDS011;59322;51.382;7.372;2024-02-16T05:40:16;65.60;;;61.70;;
71502;SDS011;59322;51.382;7.372;2024-02-16T05:42:41;65.43;;;61.60;;
71502;SDS011;59322;51.382;7.372;2024-02-16T05:45:07;67.60;;;63.60;;
71502;SDS011;59322;51.382;7.372;2024-02-16T05:47:33;63.35;;;59.63;;
71502;SDS011;59322;51.382;7.372;2024-02-16T05:49:59;66.82;;;62.80;;
71502;SDS011;59322;51.382;7.372;2024-02-16T05:52:25;65.35;;;61.55;;
71502;SDS011;59322;51.382;7.372;2024-02-16T05:54:51;64.28;;;60.47;;
71502;SDS011;59322;51.382;7.372;2024-02-16T05:57:17;66.72;;;62.92;;
71502;SDS011;59322;51.382;7.372;2024-02-16T05:59:43;68.10;;;64.20;;
71502;SDS011;59322;51.382;7.372;2024-02-16T06:02:09;62.72;;;58.97;;
71502;SDS011;59322;51.382;7.372;2024-02-16T06:04:35;64.57;;;60.78;;
71502;SDS011;59322;51.382;7.372;2024-02-16T06:07:01;62.38;;;58.58;;
71502;SDS011;59322;51.382;7.372;2024-02-16T06:09:26;65.68;;;61.83;;
71502;SDS011;59322;51.382;7.372;2024-02-16T06:11:52;64.63;;;60.75;;
71502;SDS011;59322;51.382;7.372;2024-02-16T06:14:18;70.18;;;66.00;;
71502;SDS011;59322;51.382;7.372;2024-02-16T06:16:44;74.32;;;69.88;;
71502;SDS011;59322;51.382;7.372;2024-02-16T06:19:11;93.38;;;87.15;;
71502;SDS011;59322;51.382;7.372;2024-02-16T06:21:37;75.47;;;71.03;;
71502;SDS011;59322;51.382;7.372;2024-02-16T06:24:03;74.50;;;70.10;;
71502;SDS011;59322;51.382;7.372;2024-02-16T06:26:29;75.18;;;70.88;;
71502;SDS011;59322;51.382;7.372;2024-02-16T06:28:55;72.93;;;68.60;;
71502;SDS011;59322;51.382;7.372;2024-02-16T06:31:21;73.93;;;69.72;;
71502;SDS011;59322;51.382;7.372;2024-02-16T06:33:47;72.60;;;68.30;;
71502;SDS011;59322;51.382;7.372;2024-02-16T06:36:13;74.15;;;69.85;;
71502;SDS011;59322;51.382;7.372;2024-02-16T06:38:39;72.57;;;68.35;;
71502;SDS011;59322;51.382;7.372;2024-02-16T06:41:05;71.97;;;67.57;;
71502;SDS011;59322;51.382;7.372;2024-02-16T06:43:31;75.50;;;71.10;;
71502;SDS011;59322;51.382;7.372;2024-02-16T06:45:56;70.57;;;66.50;;
71502;SDS011;59322;51.382;7.372;2024-02-16T06:48:22;68.13;;;63.83;;
71502;SDS011;59322;51.382;7.372;2024-02-16T06:50:48;71.63;;;67.40;;
71502;SDS011;59322;51.382;7.372;2024-02-16T06:53:14;74.07;;;69.47;;
71502;SDS011;59322;51.382;7.372;2024-02-16T06:55:40;73.60;;;69.40;;
71502;SDS011;59322;51.382;7.372;2024-02-16T06:58:06;71.15;;;66.97;;
71502;SDS011;59322;51.382;7.372;2024-02-16T07:00:32;73.60;;;69.28;;
71502;SDS011;59322;51.382;7.372;2024-02-16T07:02:58;68.38;;;64.40;;
71502;SDS011;59322;51.382;7.372;2024-02-16T07:05:24;64.40;;;60.42;;
71502;SDS011;59322;51.382;7.372;2024-02-16T07:07:49;62.00;;;58.20;;
71502;SDS011;59322;51.382;7.372;2024-02-16T07:10:15;66.50;;;62.50;;
71502;SDS011;59322;51.382;7.372;2024-02-16T07:12:41;63.90;;;59.95;;
71502;SDS011;59322;51.382;7.372;2024-02-16T07:15:08;60.17;;;56.63;;
71502;SDS011;59322;51.382;7.372;2024-02-16T07:17:34;56.60;;;53.03;;
71502;SDS011;59322;51.382;7.372;2024-02-16T07:20:00;56.50;;;53.00;;
71502;SDS011;59322;51.382;7.372;2024-02-16T07:22:25;52.78;;;49.45;;
71502;SDS011;59322;51.382;7.372;2024-02-16T07:24:51;54.55;;;51.25;;
71502;SDS011;59322;51.382;7.372;2024-02-16T07:27:17;51.35;;;48.22;;
71502;SDS011;59322;51.382;7.372;2024-02-16T07:29:43;60.05;;;56.42;;
71502;SDS011;59322;51.382;7.372;2024-02-16T07:32:09;56.13;;;52.22;;
71502;SDS011;59322;51.382;7.372;2024-02-16T07:34:35;55.50;;;52.10;;
71502;SDS011;59322;51.382;7.372;2024-02-16T07:37:01;60.85;;;57.25;;
71502;SDS011;59322;51.382;7.372;2024-02-16T07:39:27;59.90;;;56.40;;
71502;SDS011;59322;51.382;7.372;2024-02-16T07:41:52;58.22;;;54.20;;
71502;SDS011;59322;51.382;7.372;2024-02-16T07:44:18;60.13;;;56.35;;
71502;SDS011;59322;51.382;7.372;2024-02-16T07:46:44;59.53;;;55.95;;
71502;SDS011;59322;51.382;7.372;2024-02-16T07:49:10;57.85;;;54.45;;
71502;SDS011;59322;51.382;7.372;2024-02-16T07:51:36;62.22;;;58.30;;
71502;SDS011;59322;51.382;7.372;2024-02-16T07:54:02;58.65;;;55.17;;
71502;SDS011;59322;51.382;7.372;2024-02-16T07:56:28;56.70;;;53.20;;
71502;SDS011;59322;51.382;7.372;2024-02-16T07:58:54;57.28;;;53.83;;
71502;SDS011;59322;51.382;7.372;2024-02-16T08:01:20;57.28;;;53.88;;
71502;SDS011;59322;51.382;7.372;2024-02-16T08:03:46;58.20;;;54.60;;
71502;SDS011;59322;51.382;7.372;2024-02-16T08:06:12;56.75;;;53.15;;
71502;SDS011;59322;51.382;7.372;2024-02-16T08:08:38;60.17;;;56.38;;
71502;SDS011;59322;51.382;7.372;2024-02-16T08:11:04;60.47;;;56.88;;
71502;SDS011;59322;51.382;7.372;2024-02-16T08:13:30;59.47;;;55.65;;
71502;SDS011;59322;51.382;7.372;2024-02-16T08:15:56;62.38;;;58.60;;
71502;SDS011;59322;51.382;7.372;2024-02-16T08:18:22;61.00;;;57.30;;
71502;SDS011;59322;51.382;7.372;2024-02-16T08:20:48;59.47;;;55.85;;
71502;SDS011;59322;51.382;7.372;2024-02-16T08:23:14;57.20;;;53.80;;
71502;SDS011;59322;51.382;7.372;2024-02-16T08:25:39;60.53;;;57.03;;
71502;SDS011;59322;51.382;7.372;2024-02-16T08:28:05;53.28;;;50.10;;
71502;SDS011;59322;51.382;7.372;2024-02-16T08:30:31;53.60;;;50.45;;
71502;SDS011;59322;51.382;7.372;2024-02-16T08:32:57;50.80;;;47.70;;
71502;SDS011;59322;51.382;7.372;2024-02-16T08:35:23;51.97;;;48.58;;
71502;SDS011;59322;51.382;7.372;2024-02-16T08:37:49;53.17;;;50.03;;
71502;SDS011;59322;51.382;7.372;2024-02-16T08:40:15;51.60;;;48.30;;
71502;SDS011;59322;51.382;7.372;2024-02-16T08:42:41;53.53;;;49.88;;
71502;SDS011;59322;51.382;7.372;2024-02-16T08:45:07;54.60;;;51.38;;
71502;SDS011;59322;51.382;7.372;2024-02-16T08:47:33;50.88;;;47.38;;
71502;SDS011;59322;51.382;7.372;2024-02-16T08:49:59;50.15;;;46.80;;
71502;SDS011;59322;51.382;7.372;2024-02-16T08:52:25;52.20;;;48.80;;
71502;SDS011;59322;51.382;7.372;2024-02-16T08:54:51;49.28;;;46.28;;
71502;SDS011;59322;51.382;7.372;2024-02-16T08:57:17;51.30;;;48.13;;
71502;SDS011;59322;51.382;7.372;2024-02-16T08:59:43;51.60;;;48.30;;
71502;SDS011;59322;51.382;7.372;2024-02-16T09:02:09;52.78;;;49.55;;
71502;SDS011;59322;51.382;7.372;2024-02-16T09:04:35;50.97;;;47.65;;
71502;SDS011;59322;51.382;7.372;2024-02-16T09:07:01;55.45;;;51.95;;
71502;SDS011;59322;51.382;7.372;2024-02-16T09:09:27;54.10;;;50.95;;
71502;SDS011;59322;51.382;7.372;2024-02-16T09:11:52;52.00;;;48.88;;
71502;SDS011;59322;51.382;7.372;2024-02-16T09:14:18;54.47;;;50.95;;
71502;SDS011;59322;51.382;7.372;2024-02-16T09:16:44;57.95;;;54.60;;
71502;SDS011;59322;51.382;7.372;2024-02-16T09:19:10;55.92;;;52.45;;
71502;SDS011;59322;51.382;7.372;2024-02-16T09:21:36;48.30;;;45.42;;
71502;SDS011;59322;51.382;7.372;2024-02-16T09:24:02;48.47;;;45.22;;
71502;SDS011;59322;51.382;7.372;2024-02-16T09:26:28;48.55;;;45.58;;
71502;SDS011;59322;51.382;7.372;2024-02-16T09:28:54;56.35;;;52.75;;
71502;SDS011;59322;51.382;7.372;2024-02-16T09:31:20;50.63;;;47.53;;
71502;SDS011;59322;51.382;7.372;2024-02-16T09:33:46;53.13;;;49.58;;
71502;SDS011;59322;51.382;7.372;2024-02-16T09:36:12;51.95;;;48.40;;
71502;SDS011;59322;51.382;7.372;2024-02-16T09:38:37;52.72;;;49.63;;
71502;SDS011;59322;51.382;7.372;2024-02-16T09:41:03;56.33;;;52.72;;
71502;SDS011;59322;51.382;7.372;2024-02-16T09:43:29;58.78;;;55.17;;
71502;SDS011;59322;51.382;7.372;2024-02-16T09:45:55;68.47;;;64.20;;
71502;SDS011;59322;51.382;7.372;2024-02-16T09:48:22;72.50;;;67.90;;
71502;SDS011;59322;51.382;7.372;2024-02-16T09:50:49;62.35;;;58.25;;
71502;SDS011;59322;51.382;7.372;2024-02-16T09:53:16;52.70;;;49.30;;
71502;SDS011;59322;51.382;7.372;2024-02-16T09:55:42;46.25;;;43.22;;
71502;SDS011;59322;51.382;7.372;2024-02-16T09:58:08;53.85;;;50.45;;
71502;SDS011;59322;51.382;7.372;2024-02-16T10:00:34;50.65;;;47.40;;
71502;SDS011;59322;51.382;7.372;2024-02-16T10:03:00;50.72;;;47.58;;
71502;SDS011;59322;51.382;7.372;2024-02-16T10:05:26;51.78;;;48.55;;
71502;SDS011;59322;51.382;7.372;2024-02-16T10:07:52;48.97;;;45.92;;
71502;SDS011;59322;51.382;7.372;2024-02-16T10:12:47;42.92;;;40.08;;
71502;SDS011;59322;51.382;7.372;2024-02-16T10:15:18;51.40;;;47.85;;
71502;SDS011;59322;51.382;7.372;2024-02-16T10:17:44;49.17;;;46.03;;
71502;SDS011;59322;51.382;7.372;2024-02-16T10:20:10;48.15;;;45.22;;
71502;SDS011;59322;51.382;7.372;2024-02-16T10:22:43;46.42;;;43.47;;
71502;SDS011;59322;51.382;7.372;2024-02-16T10:25:09;46.88;;;43.92;;
71502;SDS011;59322;51.382;7.372;2024-02-16T10:27:35;47.67;;;44.47;;
71502;SDS011;59322;51.382;7.372;2024-02-16T10:30:01;44.33;;;41.63;;
71502;SDS011;59322;51.382;7.372;2024-02-16T10:32:28;50.72;;;47.55;;
71502;SDS011;59322;51.382;7.372;2024-02-16T10:34:54;53.90;;;50.50;;
71502;SDS011;59322;51.382;7.372;2024-02-16T10:37:21;49.15;;;45.70;;
71502;SDS011;59322;51.382;7.372;2024-02-16T10:39:47;48.33;;;45.30;;
71502;SDS011;59322;51.382;7.372;2024-02-16T10:42:14;45.40;;;42.60;;
71502;SDS011;59322;51.382;7.372;2024-02-16T10:44:40;52.47;;;49.17;;
71502;SDS011;59322;51.382;7.372;2024-02-16T10:47:06;55.60;;;52.10;;
71502;SDS011;59322;51.382;7.372;2024-02-16T10:49:32;58.13;;;54.33;;
71502;SDS011;59322;51.382;7.372;2024-02-16T10:51:58;56.53;;;52.80;;
71502;SDS011;59322;51.382;7.372;2024-02-16T10:54:28;51.30;;;48.00;;
71502;SDS011;59322;51.382;7.372;2024-02-16T10:56:54;52.38;;;48.75;;
71502;SDS011;59322;51.382;7.372;2024-02-16T11:02:06;52.72;;;49.33;;
71502;SDS011;59322;51.382;7.372;2024-02-16T11:07:17;48.78;;;45.78;;
71502;SDS011;59322;51.382;7.372;2024-02-16T11:12:27;50.95;;;47.75;;
71502;SDS011;59322;51.382;7.372;2024-02-16T11:14:58;51.33;;;47.97;;
71502;SDS011;59322;51.382;7.372;2024-02-16T11:17:24;45.72;;;42.78;;
71502;SDS011;59322;51.382;7.372;2024-02-16T11:19:50;48.22;;;45.08;;
71502;SDS011;59322;51.382;7.372;2024-02-16T11:22:17;50.95;;;47.63;;
71502;SDS011;59322;51.382;7.372;2024-02-16T11:24:43;52.17;;;48.78;;
71502;SDS011;59322;51.382;7.372;2024-02-16T11:27:11;53.05;;;49.53;;
71502;SDS011;59322;51.382;7.372;2024-02-16T11:29:37;52.42;;;49.00;;
71502;SDS011;59322;51.382;7.372;2024-02-16T11:32:03;53.28;;;49.95;;
71502;SDS011;59322;51.382;7.372;2024-02-16T11:34:30;49.53;;;46.42;;
71502;SDS011;59322;51.382;7.372;2024-02-16T11:36:56;47.92;;;44.60;;
71502;SDS011;59322;51.382;7.372;2024-02-16T11:39:22;55.92;;;52.05;;
71502;SDS011;59322;51.382;7.372;2024-02-16T11:41:58;55.78;;;52.22;;
71502;SDS011;59322;51.382;7.372;2024-02-16T11:44:24;56.70;;;52.88;;
71502;SDS011;59322;51.382;7.372;2024-02-16T11:46:53;60.42;;;56.30;;
71502;SDS011;59322;51.382;7.372;2024-02-16T11:49:19;52.88;;;48.95;;
71502;SDS011;59322;51.382;7.372;2024-02-16T11:51:45;58.08;;;54.15;;
71502;SDS011;59322;51.382;7.372;2024-02-16T11:54:11;51.42;;;47.63;;
71502;SDS011;59322;51.382;7.372;2024-02-16T11:56:36;47.30;;;43.83;;
71502;SDS011;59322;51.382;7.372;2024-02-16T11:59:02;56.80;;;53.22;;
71502;SDS011;59322;51.382;7.372;2024-02-16T12:01:29;59.67;;;55.97;;
71502;SDS011;59322;51.382;7.372;2024-02-16T12:03:54;57.08;;;53.35;;
71502;SDS011;59322;51.382;7.372;2024-02-16T12:06:20;57.38;;;53.80;;
71502;SDS011;59322;51.382;7.372;2024-02-16T12:08:46;59.08;;;55.33;;
71502;SDS011;59322;51.382;7.372;2024-02-16T12:11:12;59.22;;;55.55;;
71502;SDS011;59322;51.382;7.372;2024-02-16T12:13:39;56.38;;;52.72;;
71502;SDS011;59322;51.382;7.372;2024-02-16T12:16:05;63.22;;;59.03;;
71502;SDS011;59322;51.382;7.372;2024-02-16T12:18:31;66.68;;;62.53;;
71502;SDS011;59322;51.382;7.372;2024-02-16T12:21:00;58.10;;;54.70;;
71502;SDS011;59322;51.382;7.372;2024-02-16T12:23:26;57.28;;;53.45;;
71502;SDS011;59322;51.382;7.372;2024-02-16T12:25:52;61.25;;;57.33;;
71502;SDS011;59322;51.382;7.372;2024-02-16T12:28:17;62.08;;;58.03;;
71502;SDS011;59322;51.382;7.372;2024-02-16T12:30:43;67.53;;;63.50;;
71502;SDS011;59322;51.382;7.372;2024-02-16T12:33:09;69.10;;;64.70;;
71502;SDS011;59322;51.382;7.372;2024-02-16T12:35:35;69.10;;;64.70;;
71502;SDS011;59322;51.382;7.372;2024-02-16T12:38:01;73.68;;;68.32;;
71502;SDS011;59322;51.382;7.372;2024-02-16T12:40:27;71.97;;;67.30;;
71502;SDS011;59322;51.382;7.372;2024-02-16T12:42:53;78.38;;;73.68;;
71502;SDS011;59322;51.382;7.372;2024-02-16T12:45:19;78.25;;;73.40;;
71502;SDS011;59322;51.382;7.372;2024-02-16T12:47:45;81.35;;;76.32;;
71502;SDS011;59322;51.382;7.372;2024-02-16T12:50:10;81.13;;;76.18;;
71502;SDS011;59322;51.382;7.372;2024-02-16T12:52:36;83.35;;;77.97;;
71502;SDS011;59322;51.382;7.372;2024-02-16T12:55:02;77.03;;;71.97;;
71502;SDS011;59322;51.382;7.372;2024-02-16T12:57:28;83.72;;;78.38;;
71502;SDS011;59322;51.382;7.372;2024-02-16T12:59:54;72.90;;;68.35;;
71502;SDS011;59322;51.382;7.372;2024-02-16T13:02:20;78.03;;;73.22;;
71502;SDS011;59322;51.382;7.372;2024-02-16T13:04:46;80.47;;;75.60;;
71502;SDS011;59322;51.382;7.372;2024-02-16T13:07:12;78.75;;;73.90;;
71502;SDS011;59322;51.382;7.372;2024-02-16T13:09:38;72.45;;;68.05;;
71502;SDS011;59322;51.382;7.372;2024-02-16T13:12:04;70.45;;;66.10;;
71502;SDS011;59322;51.382;7.372;2024-02-16T13:14:30;74.72;;;70.15;;
71502;SDS011;59322;51.382;7.372;2024-02-16T13:16:56;69.32;;;64.82;;
71502;SDS011;59322;51.382;7.372;2024-02-16T13:19:21;64.70;;;60.30;;
71502;SDS011;59322;51.382;7.372;2024-02-16T13:21:47;55.88;;;52.30;;
71502;SDS011;59322;51.382;7.372;2024-02-16T13:24:13;52.85;;;49.30;;
71502;SDS011;59322;51.382;7.372;2024-02-16T13:26:39;50.60;;;46.17;;
71502;SDS011;59322;51.382;7.372;2024-02-16T13:29:05;51.17;;;47.78;;
71502;SDS011;59322;51.382;7.372;2024-02-16T13:31:31;52.72;;;49.05;;
71502;SDS011;59322;51.382;7.372;2024-02-16T13:33:57;50.13;;;46.67;;
71502;SDS011;59322;51.382;7.372;2024-02-16T13:36:23;38.40;;;35.45;;
71502;SDS011;59322;51.382;7.372;2024-02-16T13:38:49;41.30;;;38.38;;
71502;SDS011;59322;51.382;7.372;2024-02-16T13:41:14;41.75;;;38.38;;
71502;SDS011;59322;51.382;7.372;2024-02-16T13:43:40;35.58;;;32.30;;
71502;SDS011;59322;51.382;7.372;2024-02-16T13:46:06;35.15;;;32.38;;
71502;SDS011;59322;51.382;7.372;2024-02-16T13:48:32;35.10;;;32.22;;
71502;SDS011;59322;51.382;7.372;2024-02-16T13:50:58;30.08;;;27.35;;
71502;SDS011;59322;51.382;7.372;2024-02-16T13:53:24;30.80;;;28.15;;
71502;SDS011;59322;51.382;7.372;2024-02-16T13:55:50;32.25;;;29.25;;
71502;SDS011;59322;51.382;7.372;2024-02-16T13:58:16;29.05;;;26.13;;
71502;SDS011;59322;51.382;7.372;2024-02-16T14:00:42;28.88;;;26.17;;
71502;SDS011;59322;51.382;7.372;2024-02-16T14:03:08;30.73;;;26.73;;
71502;SDS011;59322;51.382;7.372;2024-02-16T14:05:36;23.83;;;21.52;;
71502;SDS011;59322;51.382;7.372;2024-02-16T14:08:02;25.70;;;23.05;;
71502;SDS011;59322;51.382;7.372;2024-02-16T14:10:28;26.00;;;23.40;;
71502;SDS011;59322;51.382;7.372;2024-02-16T14:12:54;26.48;;;23.73;;
71502;SDS011;59322;51.382;7.372;2024-02-16T14:15:21;29.27;;;26.48;;
71502;SDS011;59322;51.382;7.372;2024-02-16T14:17:47;27.42;;;24.77;;
71502;SDS011;59322;51.382;7.372;2024-02-16T14:20:13;29.35;;;26.65;;
71502;SDS011;59322;51.382;7.372;2024-02-16T14:22:39;31.35;;;28.27;;
71502;SDS011;59322;51.382;7.372;2024-02-16T14:25:05;30.83;;;28.05;;
71502;SDS011;59322;51.382;7.372;2024-02-16T14:27:31;33.65;;;30.35;;